Pagina principală
METAR-TAF:

METAR-TAF

Aeroporturi :

Posadas, Argentina

Latitudine: 27-22S, longitudine: 055-58W, elevație: 131 m

METAR: lipsă

Ora: 08:54 (11:54 UTC)

Prognoză

Raportul a fost făcut în urmă cu 30 ore și 54 de minute, la 05:00 UTC
Prognoză valabilă de la 27 ora 06 UTC la 28 ora 06 UTC
Vânt kt de la Nord
Vizibilitate: 6000 m
Nori împrăștiați la o înălțime de 1200 picior
Total acoperit la o înălțime de 5000 picior
Probabilitate 40%
de la 27 ora 08 UTC la 27 ora 12 UTC
Vizibilitate: 0800 m
Total acoperit la o înălțime de 300 picior
ceață
Devenind
de la 27 ora 13 UTC la 27 ora 14 UTC
Vizibilitate de 10 km sau mai mult
Nori fragmentați la o înălțime de 2000 picior

TAF: SARP 270500Z 2706/2806 00000KT 6000 SCT012 OVC050 TX14/2718Z TN10/2709Z PROB40 2708/2712 0800 FG OVC003 BECMG 2713/2714 9999 BKN020

Observații și prognoze meteo pentru peste 4.000 de aeroporturi (rapoarte METAR și TAF).

Stațiile disponibile sunt reprezentate pe hartă prin puncte galbene și roșii.

Țineți indicatorul mouse-ului pe punctul dorit pentru a vedea denumirea stației.

Apoi, faceți clic pentru a vedea observațiile și prognozele meteorologice.

Pentru a schimba harta: Pentru mărire, faceți clic pe butoanele verzi cu cruce neagră; pentru micșorare, pe butonul verde cu o liniuță; pentru hărți învecinate, pe săgețile verzi.


METAR-TAF: